createdAt,value
2022-10-10T00:01:32.457Z,32.40
2022-10-10T00:04:01.996Z,61.47
2022-10-10T00:06:33.238Z,54.85
2022-10-10T00:09:04.149Z,52.53
2022-10-10T00:11:32.593Z,51.95
2022-10-10T00:14:01.308Z,41.20
2022-10-10T00:16:29.285Z,39.55
2022-10-10T00:18:57.646Z,43.25
2022-10-10T00:21:25.642Z,43.15
2022-10-10T00:23:53.610Z,49.65
2022-10-10T00:26:21.716Z,51.30
2022-10-10T00:28:49.886Z,43.25
2022-10-10T00:31:18.031Z,38.22
2022-10-10T00:33:46.594Z,43.40
2022-10-10T00:36:14.720Z,38.00
2022-10-10T00:38:43.311Z,35.35
2022-10-10T00:41:11.152Z,33.95
2022-10-10T00:43:39.387Z,33.33
2022-10-10T00:46:07.060Z,32.47
2022-10-10T00:48:37.871Z,32.75
2022-10-10T00:51:17.398Z,31.90
2022-10-10T00:53:49.065Z,32.75
2022-10-10T00:56:20.879Z,31.48
2022-10-10T00:58:51.663Z,29.27
2022-10-10T01:01:20.227Z,28.60
2022-10-10T01:03:48.709Z,29.55
2022-10-10T01:06:16.569Z,30.08
2022-10-10T01:08:45.124Z,31.00
2022-10-10T01:11:38.403Z,27.80
2022-10-10T01:14:37.659Z,30.20
2022-10-10T01:17:11.488Z,28.83
2022-10-10T01:20:01.618Z,29.70
2022-10-10T01:22:41.383Z,28.95
2022-10-10T01:25:37.433Z,27.48
2022-10-10T01:28:31.020Z,27.52
2022-10-10T01:33:39.011Z,27.33
2022-10-10T01:36:16.877Z,29.25
2022-10-10T01:39:08.864Z,28.15
2022-10-10T01:41:56.973Z,28.77
2022-10-10T01:44:24.923Z,25.63
2022-10-10T01:46:52.826Z,26.65
2022-10-10T01:49:24.368Z,26.40
2022-10-10T01:52:16.467Z,25.98
2022-10-10T01:55:02.828Z,26.73
2022-10-10T01:57:53.309Z,26.38
2022-10-10T02:00:21.237Z,26.70
2022-10-10T02:03:08.559Z,26.45
2022-10-10T02:05:41.653Z,27.10
2022-10-10T02:08:27.094Z,26.77
2022-10-10T02:11:06.782Z,25.13
2022-10-10T02:14:00.805Z,26.17
2022-10-10T02:16:32.598Z,26.02
2022-10-10T02:19:01.570Z,26.67
2022-10-10T02:21:30.068Z,26.35
2022-10-10T02:24:01.950Z,27.13
2022-10-10T02:26:32.025Z,24.67
2022-10-10T02:29:01.802Z,26.75
2022-10-10T02:31:38.409Z,27.40
2022-10-10T02:34:11.261Z,27.77
2022-10-10T02:36:40.681Z,27.65
2022-10-10T02:39:10.522Z,27.75
2022-10-10T02:41:38.651Z,26.38
2022-10-10T02:44:07.583Z,26.05
2022-10-10T02:46:35.335Z,27.13
2022-10-10T02:49:03.373Z,27.85
2022-10-10T02:51:31.590Z,29.45
2022-10-10T02:54:00.155Z,27.15
2022-10-10T02:56:28.083Z,28.17
2022-10-10T02:58:56.390Z,28.58
2022-10-10T03:01:24.426Z,29.15
2022-10-10T03:03:52.934Z,29.08
2022-10-10T03:06:20.819Z,27.58
2022-10-10T03:08:48.855Z,32.40
2022-10-10T03:11:16.589Z,32.95
2022-10-10T03:13:44.890Z,30.45
2022-10-10T03:16:13.424Z,30.38
2022-10-10T03:18:41.770Z,31.63
2022-10-10T03:21:09.903Z,32.30
2022-10-10T03:23:37.834Z,28.85
2022-10-10T03:26:06.294Z,31.52
2022-10-10T03:28:34.237Z,29.40
2022-10-10T03:31:02.674Z,29.00
2022-10-10T03:33:30.615Z,34.50
2022-10-10T03:35:59.149Z,34.33
2022-10-10T03:38:27.064Z,32.05
2022-10-10T03:40:55.612Z,30.63
2022-10-10T03:43:23.709Z,34.33
2022-10-10T03:45:51.795Z,35.17
2022-10-10T03:48:23.066Z,32.70
2022-10-10T03:50:51.325Z,35.72
2022-10-10T03:53:19.401Z,33.40
2022-10-10T03:55:47.655Z,35.95
2022-10-10T03:58:18.005Z,35.63
2022-10-10T04:00:59.413Z,32.00
2022-10-10T04:03:27.316Z,30.10
2022-10-10T04:05:56.018Z,32.25
2022-10-10T04:08:25.108Z,33.33
2022-10-10T04:10:55.061Z,35.22
2022-10-10T04:13:23.794Z,34.20
2022-10-10T04:15:53.507Z,33.20
2022-10-10T04:18:22.029Z,34.53
2022-10-10T04:20:50.707Z,34.00
2022-10-10T04:23:18.368Z,33.97
2022-10-10T04:25:48.243Z,34.15
2022-10-10T04:28:16.987Z,33.78
2022-10-10T04:30:45.241Z,31.65
2022-10-10T04:33:12.969Z,32.00
2022-10-10T04:35:41.534Z,31.52
2022-10-10T04:38:09.655Z,35.00
2022-10-10T04:40:38.359Z,32.63
2022-10-10T04:43:06.051Z,32.22
2022-10-10T04:45:37.410Z,32.97
2022-10-10T04:48:05.715Z,35.00
2022-10-10T04:50:33.774Z,35.63
2022-10-10T04:53:01.661Z,36.42
2022-10-10T04:55:30.012Z,33.47
2022-10-10T04:57:58.664Z,32.85
2022-10-10T05:00:27.311Z,34.63
2022-10-10T05:02:55.422Z,34.47
2022-10-10T05:05:24.164Z,33.85
2022-10-10T05:07:55.533Z,35.35
2022-10-10T05:10:25.743Z,34.67
2022-10-10T05:12:53.947Z,33.47
2022-10-10T05:15:23.213Z,48.22
2022-10-10T05:17:51.198Z,42.30
2022-10-10T05:20:20.266Z,32.60
2022-10-10T05:22:48.099Z,31.75
2022-10-10T05:25:16.661Z,34.40
2022-10-10T05:27:44.680Z,34.08
2022-10-10T05:30:13.343Z,34.92
2022-10-10T05:32:41.423Z,35.95
2022-10-10T05:35:10.011Z,35.08
2022-10-10T05:37:38.311Z,35.83
2022-10-10T05:40:07.086Z,37.53
2022-10-10T05:42:35.387Z,47.15
2022-10-10T05:45:04.585Z,50.88
2022-10-10T05:47:32.445Z,61.05
2022-10-10T05:50:00.833Z,50.65
2022-10-10T05:52:29.390Z,53.38
2022-10-10T05:54:58.135Z,44.75
2022-10-10T05:57:26.089Z,37.53
2022-10-10T05:59:54.460Z,28.85
2022-10-10T06:02:22.129Z,27.13
2022-10-10T06:04:50.858Z,24.65
2022-10-10T06:07:18.835Z,23.10
2022-10-10T06:09:47.364Z,24.90
2022-10-10T06:12:15.315Z,22.67
2022-10-10T06:14:43.449Z,24.67
2022-10-10T06:17:13.714Z,24.20
2022-10-10T06:19:43.868Z,22.05
2022-10-10T06:22:12.244Z,22.88
2022-10-10T06:24:40.155Z,22.73
2022-10-10T06:27:07.889Z,22.90
2022-10-10T06:29:36.070Z,23.20
2022-10-10T06:32:03.791Z,22.35
2022-10-10T06:34:32.082Z,21.70
2022-10-10T06:36:59.944Z,19.25
2022-10-10T06:39:28.356Z,20.08
2022-10-10T06:41:57.011Z,18.05
2022-10-10T06:44:27.926Z,18.15
2022-10-10T06:46:55.785Z,17.92
2022-10-10T06:49:24.994Z,17.55
2022-10-10T06:51:52.915Z,16.45
2022-10-10T06:54:21.290Z,16.52
2022-10-10T06:56:49.109Z,16.17
2022-10-10T06:59:17.078Z,17.58
2022-10-10T07:01:45.536Z,15.07
2022-10-10T07:04:13.818Z,15.43
2022-10-10T07:06:41.584Z,15.55
2022-10-10T07:09:10.080Z,15.35
2022-10-10T07:11:37.811Z,15.25
2022-10-10T07:14:05.851Z,16.63
2022-10-10T07:16:34.315Z,14.90
2022-10-10T07:19:02.806Z,15.10
2022-10-10T07:21:30.661Z,14.85
2022-10-10T07:23:58.627Z,15.93
2022-10-10T07:26:28.542Z,14.27
2022-10-10T07:28:56.711Z,15.43
2022-10-10T07:31:24.571Z,15.07
2022-10-10T07:33:53.076Z,13.98
2022-10-10T07:36:21.307Z,15.13
2022-10-10T07:38:53.362Z,14.02
2022-10-10T07:41:21.972Z,14.68
2022-10-10T07:43:55.564Z,14.75
2022-10-10T07:46:24.329Z,15.13
2022-10-10T07:48:52.379Z,15.18
2022-10-10T07:51:20.781Z,14.38
2022-10-10T07:53:48.745Z,15.45
2022-10-10T07:56:17.071Z,14.68
2022-10-10T07:58:45.161Z,15.32
2022-10-10T08:01:13.887Z,15.38
2022-10-10T08:03:42.319Z,14.38
2022-10-10T08:06:13.960Z,14.15
2022-10-10T08:08:50.806Z,13.45
2022-10-10T08:11:21.848Z,14.07
2022-10-10T08:13:50.991Z,13.27
2022-10-10T08:16:20.633Z,13.00
2022-10-10T08:18:48.984Z,12.73
2022-10-10T08:21:17.570Z,13.02
2022-10-10T08:23:45.632Z,13.82
2022-10-10T08:26:15.344Z,13.73
2022-10-10T08:28:44.735Z,12.73
2022-10-10T08:31:14.913Z,12.15
2022-10-10T08:33:45.984Z,12.43
2022-10-10T08:36:22.667Z,11.90
2022-10-10T08:38:53.552Z,11.90
2022-10-10T08:41:45.905Z,9.63
2022-10-10T08:44:40.259Z,10.43
2022-10-10T08:47:15.048Z,9.45
2022-10-10T08:49:50.448Z,9.15
2022-10-10T08:52:38.695Z,8.25
2022-10-10T08:55:14.411Z,8.20
2022-10-10T08:57:59.038Z,7.68
2022-10-10T09:00:33.433Z,7.70
2022-10-10T09:03:02.018Z,8.00
2022-10-10T09:05:49.991Z,8.98
2022-10-10T09:08:54.292Z,7.80
2022-10-10T09:11:50.684Z,7.60
2022-10-10T09:14:24.047Z,8.57
2022-10-10T09:17:35.021Z,8.20
2022-10-10T09:20:24.994Z,8.13
2022-10-10T09:23:11.697Z,7.95
2022-10-10T09:25:48.138Z,7.65
2022-10-10T09:28:39.270Z,7.32
2022-10-10T09:31:15.153Z,7.00
2022-10-10T09:33:52.005Z,7.18
2022-10-10T09:36:24.620Z,7.13
2022-10-10T09:39:02.440Z,7.55
2022-10-10T09:41:39.920Z,7.32
2022-10-10T09:44:11.655Z,7.30
2022-10-10T09:46:40.054Z,7.75
2022-10-10T09:49:08.271Z,7.28
2022-10-10T09:51:36.077Z,6.70
2022-10-10T09:54:05.513Z,7.53
2022-10-10T09:56:49.503Z,7.38
2022-10-10T09:59:39.840Z,7.35
2022-10-10T10:02:19.831Z,8.10
2022-10-10T10:04:49.433Z,6.57
2022-10-10T10:07:34.610Z,7.00
2022-10-10T10:10:12.245Z,7.18
2022-10-10T10:12:42.337Z,7.38
2022-10-10T10:15:24.775Z,7.47
2022-10-10T10:18:17.885Z,6.75
2022-10-10T10:20:48.427Z,6.57
2022-10-10T10:23:36.433Z,6.63
2022-10-10T10:26:09.862Z,6.63
2022-10-10T10:31:19.487Z,6.88
2022-10-10T10:34:08.760Z,6.40
2022-10-10T10:37:02.725Z,6.70
2022-10-10T10:39:52.067Z,6.35
2022-10-10T10:42:35.810Z,6.55
2022-10-10T10:45:19.110Z,6.65
2022-10-10T10:50:42.337Z,5.97
2022-10-10T10:53:32.719Z,6.03
2022-10-10T10:56:19.327Z,6.30
2022-10-10T11:02:09.425Z,5.32
2022-10-10T11:05:23.626Z,5.40
2022-10-10T11:08:20.234Z,4.75
2022-10-10T11:11:07.550Z,5.93
2022-10-10T11:13:52.873Z,6.22
2022-10-10T11:16:49.118Z,5.38
2022-10-10T11:19:38.264Z,5.65
2022-10-10T11:22:13.989Z,5.05
2022-10-10T11:24:54.471Z,13.02
2022-10-10T11:27:29.239Z,5.07
2022-10-10T11:29:59.969Z,4.88
2022-10-10T11:32:33.594Z,5.85
2022-10-10T11:35:14.109Z,5.25
2022-10-10T11:37:47.570Z,5.20
2022-10-10T11:40:41.463Z,4.82
2022-10-10T11:43:16.111Z,3.75
2022-10-10T11:45:53.612Z,4.57
2022-10-10T11:48:45.964Z,4.18
2022-10-10T11:51:46.089Z,3.45
2022-10-10T11:54:28.726Z,3.63
2022-10-10T11:57:01.033Z,4.00
2022-10-10T11:59:54.738Z,3.08
2022-10-10T12:02:37.215Z,3.08
2022-10-10T12:05:06.659Z,3.00
2022-10-10T12:07:44.006Z,3.05
2022-10-10T12:10:50.562Z,2.92
2022-10-10T12:13:30.272Z,2.47
2022-10-10T12:16:02.990Z,3.00
2022-10-10T12:19:16.775Z,3.20
2022-10-10T12:22:03.831Z,2.70
2022-10-10T12:25:10.057Z,2.85
2022-10-10T12:28:05.983Z,3.13
2022-10-10T12:30:34.256Z,2.83
2022-10-10T12:33:02.555Z,2.67
2022-10-10T12:35:39.835Z,2.85
2022-10-10T12:38:15.332Z,2.70
2022-10-10T12:41:13.950Z,3.35
2022-10-10T12:43:50.198Z,3.00
2022-10-10T12:46:29.649Z,2.90
2022-10-10T12:49:01.520Z,2.88
2022-10-10T12:51:30.464Z,3.53
2022-10-10T12:54:00.167Z,2.75
2022-10-10T12:56:46.554Z,2.53
2022-10-10T12:59:21.144Z,3.30
2022-10-10T13:02:02.422Z,2.47
2022-10-10T13:04:31.251Z,3.00
2022-10-10T13:07:00.945Z,2.90
2022-10-10T13:09:35.462Z,3.17
2022-10-10T13:12:06.019Z,2.67
2022-10-10T13:14:45.165Z,2.78
2022-10-10T13:17:32.570Z,3.30
2022-10-10T13:20:01.350Z,3.05
2022-10-10T13:22:30.977Z,3.00
2022-10-10T13:25:00.610Z,2.72
2022-10-10T13:27:32.733Z,2.47
2022-10-10T13:30:01.497Z,2.83
2022-10-10T13:32:33.463Z,2.90
2022-10-10T13:35:04.820Z,2.50
2022-10-10T13:37:33.173Z,2.80
2022-10-10T13:40:01.415Z,2.47
2022-10-10T13:42:38.733Z,2.80
2022-10-10T13:45:30.096Z,2.35
2022-10-10T13:48:02.143Z,3.08
2022-10-10T13:50:53.498Z,2.58
2022-10-10T13:53:27.783Z,2.63
2022-10-10T13:56:26.249Z,3.10
2022-10-10T13:58:58.381Z,2.92
2022-10-10T14:01:33.340Z,2.60
2022-10-10T14:04:26.311Z,2.20
2022-10-10T14:07:05.748Z,2.60
2022-10-10T14:09:40.341Z,2.50
2022-10-10T14:12:33.910Z,2.80
2022-10-10T14:15:03.193Z,2.20
2022-10-10T14:17:31.977Z,2.20
2022-10-10T14:20:00.053Z,1.83
2022-10-10T14:22:28.181Z,2.15
2022-10-10T14:24:56.023Z,2.10
2022-10-10T14:27:26.515Z,2.10
2022-10-10T14:29:57.888Z,1.90
2022-10-10T14:32:27.939Z,2.00
2022-10-10T14:34:55.669Z,2.10
2022-10-10T14:37:27.462Z,1.95
2022-10-10T14:39:56.235Z,1.83
2022-10-10T14:42:26.670Z,2.30
2022-10-10T14:44:55.146Z,1.88
2022-10-10T14:47:24.875Z,2.40
2022-10-10T14:49:53.719Z,2.15
2022-10-10T14:52:22.349Z,2.17
2022-10-10T14:54:50.133Z,2.03
2022-10-10T14:57:19.621Z,1.85
2022-10-10T14:59:50.062Z,2.25
2022-10-10T15:02:20.986Z,2.30
2022-10-10T15:04:49.719Z,2.47
2022-10-10T15:07:18.270Z,2.17
2022-10-10T15:10:11.211Z,1.80
2022-10-10T15:12:38.600Z,1.92
2022-10-10T15:15:08.705Z,1.92
2022-10-10T15:17:36.952Z,2.00
2022-10-10T15:20:07.415Z,2.20
2022-10-10T15:22:42.962Z,2.13
2022-10-10T15:25:11.380Z,2.45
2022-10-10T15:27:39.563Z,2.30
2022-10-10T15:30:08.231Z,2.60
2022-10-10T15:32:39.597Z,4.18
2022-10-10T15:35:08.550Z,3.35
2022-10-10T15:37:36.968Z,3.00
2022-10-10T15:40:05.893Z,4.13
2022-10-10T15:42:34.332Z,4.20
2022-10-10T15:45:02.742Z,4.13
2022-10-10T15:47:31.562Z,4.38
2022-10-10T15:49:59.455Z,3.20
2022-10-10T15:52:27.793Z,2.60
2022-10-10T15:54:55.915Z,2.97
2022-10-10T15:57:24.553Z,3.30
2022-10-10T15:59:52.385Z,3.00
2022-10-10T16:02:20.946Z,3.83
2022-10-10T16:04:48.885Z,3.60
2022-10-10T16:07:38.455Z,3.58
2022-10-10T16:10:05.682Z,3.92
2022-10-10T16:12:33.491Z,4.03
2022-10-10T16:15:06.049Z,3.25
2022-10-10T16:17:35.520Z,3.72
2022-10-10T16:20:04.210Z,3.78
2022-10-10T16:22:31.979Z,4.07
2022-10-10T16:27:48.872Z,3.65
2022-10-10T16:30:17.173Z,3.85
2022-10-10T16:32:44.952Z,4.32
2022-10-10T16:35:13.231Z,5.22
2022-10-10T16:37:41.715Z,5.45
2022-10-10T16:40:10.799Z,6.45
2022-10-10T16:42:39.223Z,6.30
2022-10-10T16:45:08.179Z,5.13
2022-10-10T16:47:36.684Z,4.38
2022-10-10T16:50:06.150Z,5.30
2022-10-10T16:52:38.351Z,5.75
2022-10-10T16:55:08.427Z,6.07
2022-10-10T16:57:36.700Z,5.10
2022-10-10T17:00:07.307Z,5.53
2022-10-10T17:02:36.076Z,5.60
2022-10-10T17:05:04.918Z,4.85
2022-10-10T17:07:32.762Z,4.95
2022-10-10T17:10:00.777Z,5.60
2022-10-10T17:12:28.903Z,6.18
2022-10-10T17:14:56.872Z,5.78
2022-10-10T17:17:25.231Z,5.32
2022-10-10T17:19:54.180Z,6.07
2022-10-10T17:22:22.107Z,5.72
2022-10-10T17:24:50.547Z,5.75
2022-10-10T17:27:19.144Z,5.80
2022-10-10T17:29:46.978Z,6.30
2022-10-10T17:32:14.791Z,6.30
2022-10-10T17:34:43.073Z,6.05
2022-10-10T17:37:10.897Z,7.15
2022-10-10T17:39:38.879Z,6.63
2022-10-10T17:42:07.063Z,7.35
2022-10-10T17:44:41.128Z,6.80
2022-10-10T17:47:11.764Z,6.72
2022-10-10T17:49:41.407Z,5.80
2022-10-10T17:52:09.519Z,6.82
2022-10-10T17:54:38.102Z,5.93
2022-10-10T17:57:06.430Z,7.07
2022-10-10T17:59:34.386Z,6.88
2022-10-10T18:02:02.988Z,7.88
2022-10-10T18:04:31.198Z,7.95
2022-10-10T18:06:59.161Z,8.40
2022-10-10T18:09:32.117Z,7.47
2022-10-10T18:12:01.071Z,9.15
2022-10-10T18:14:29.625Z,7.95
2022-10-10T18:16:58.199Z,8.00
2022-10-10T18:19:26.162Z,8.23
2022-10-10T18:21:54.159Z,7.10
2022-10-10T18:24:21.833Z,8.68
2022-10-10T18:26:50.348Z,8.40
2022-10-10T18:29:18.310Z,8.50
2022-10-10T18:31:45.752Z,7.75
2022-10-10T18:34:13.691Z,8.57
2022-10-10T18:36:42.613Z,8.55
2022-10-10T18:39:14.091Z,8.70
2022-10-10T18:41:41.918Z,10.00
2022-10-10T18:44:13.391Z,9.90
2022-10-10T18:46:41.052Z,11.13
2022-10-10T18:49:09.643Z,10.52
2022-10-10T18:51:37.620Z,9.77
2022-10-10T18:54:08.666Z,10.73
2022-10-10T18:56:38.267Z,11.27
2022-10-10T18:59:07.663Z,9.95
2022-10-10T19:01:36.881Z,10.95
2022-10-10T19:04:05.898Z,10.52
2022-10-10T19:06:34.081Z,9.23
2022-10-10T19:09:02.610Z,10.77
2022-10-10T19:11:33.462Z,11.43
2022-10-10T19:14:03.338Z,10.57
2022-10-10T19:16:31.426Z,10.68
2022-10-10T19:19:03.324Z,11.52
2022-10-10T19:21:33.818Z,10.50
2022-10-10T19:24:03.094Z,11.15
2022-10-10T19:26:34.312Z,11.25
2022-10-10T19:29:07.020Z,11.90
2022-10-10T19:31:36.409Z,10.30
2022-10-10T19:34:05.191Z,13.25
2022-10-10T19:36:36.152Z,10.95
2022-10-10T19:39:06.774Z,11.63
2022-10-10T19:41:35.086Z,14.32
2022-10-10T19:44:05.469Z,12.40
2022-10-10T19:46:37.147Z,11.95
2022-10-10T19:49:05.285Z,12.00
2022-10-10T19:51:32.909Z,11.55
2022-10-10T19:54:00.696Z,11.18
2022-10-10T19:56:28.209Z,12.75
2022-10-10T19:58:57.798Z,12.00
2022-10-10T20:01:29.546Z,12.48
2022-10-10T20:03:59.265Z,12.88
2022-10-10T20:06:27.750Z,11.75
2022-10-10T20:08:55.648Z,12.18
2022-10-10T20:11:23.724Z,11.13
2022-10-10T20:13:54.252Z,13.57
2022-10-10T20:16:23.419Z,12.48
2022-10-10T20:18:50.757Z,12.68
2022-10-10T20:21:24.535Z,12.15
2022-10-10T20:23:52.130Z,12.00
2022-10-10T20:26:21.859Z,11.88
2022-10-10T20:28:50.787Z,10.90
2022-10-10T20:31:23.857Z,12.80
2022-10-10T20:36:22.132Z,11.02
2022-10-10T20:39:06.636Z,12.18
2022-10-10T20:41:36.206Z,9.73
2022-10-10T20:44:05.937Z,11.25
2022-10-10T20:46:36.477Z,11.25
2022-10-10T20:49:06.670Z,11.52
2022-10-10T20:51:33.977Z,11.75
2022-10-10T20:54:03.878Z,12.13
2022-10-10T20:56:33.133Z,12.80
2022-10-10T20:59:01.113Z,11.05
2022-10-10T21:01:30.634Z,10.10
2022-10-10T21:03:58.933Z,11.32
2022-10-10T21:06:29.360Z,11.70
2022-10-10T21:08:56.979Z,11.45
2022-10-10T21:11:24.731Z,11.27
2022-10-10T21:13:56.585Z,10.18
2022-10-10T21:16:27.368Z,11.45
2022-10-10T21:18:57.836Z,12.30
2022-10-10T21:21:32.319Z,10.93
2022-10-10T21:24:01.268Z,11.50
2022-10-10T21:26:30.106Z,10.73
2022-10-10T21:28:59.771Z,11.07
2022-10-10T21:31:36.477Z,11.13
2022-10-10T21:34:07.211Z,11.73
2022-10-10T21:36:36.765Z,11.27
2022-10-10T21:39:07.019Z,11.77
2022-10-10T21:41:35.981Z,11.30
2022-10-10T21:44:04.264Z,10.52
2022-10-10T21:46:36.601Z,10.93
2022-10-10T21:49:07.368Z,11.95
2022-10-10T21:51:37.650Z,11.23
2022-10-10T21:54:07.082Z,10.65
2022-10-10T21:56:35.759Z,10.68
2022-10-10T21:59:05.154Z,10.80
2022-10-10T22:01:33.477Z,10.45
2022-10-10T22:04:03.516Z,10.15
2022-10-10T22:06:32.398Z,10.43
2022-10-10T22:09:02.024Z,10.07
2022-10-10T22:11:32.606Z,9.88
2022-10-10T22:14:02.695Z,9.55
2022-10-10T22:16:32.310Z,9.73
2022-10-10T22:19:00.868Z,10.15
2022-10-10T22:21:32.380Z,9.82
2022-10-10T22:24:02.419Z,10.35
2022-10-10T22:26:31.769Z,9.50
2022-10-10T22:29:00.136Z,9.20
2022-10-10T22:31:29.701Z,9.93
2022-10-10T22:33:58.285Z,10.00
2022-10-10T22:36:26.583Z,9.35
2022-10-10T22:38:55.232Z,9.52
2022-10-10T22:41:23.641Z,9.10
2022-10-10T22:43:52.209Z,8.98
2022-10-10T22:46:20.831Z,10.32
2022-10-10T22:48:48.752Z,9.52
2022-10-10T22:51:18.380Z,9.40
2022-10-10T22:53:48.147Z,9.50
2022-10-10T22:56:19.731Z,10.13
2022-10-10T22:58:49.649Z,8.65
2022-10-10T23:01:20.390Z,8.25
2022-10-10T23:03:48.273Z,9.02
2022-10-10T23:06:16.613Z,9.73
2022-10-10T23:08:44.466Z,8.93
2022-10-10T23:11:13.134Z,8.30
2022-10-10T23:13:41.395Z,9.18
2022-10-10T23:16:09.484Z,8.80
2022-10-10T23:18:38.060Z,9.65
2022-10-10T23:21:06.810Z,9.07
2022-10-10T23:23:35.030Z,8.73
2022-10-10T23:26:07.736Z,8.25
2022-10-10T23:28:37.439Z,8.95
2022-10-10T23:31:07.203Z,8.60
2022-10-10T23:33:37.147Z,9.05
2022-10-10T23:36:09.016Z,9.45
2022-10-10T23:38:38.147Z,9.45
2022-10-10T23:41:06.765Z,10.25
2022-10-10T23:43:35.050Z,8.75
2022-10-10T23:46:03.174Z,9.23
2022-10-10T23:48:31.617Z,9.52
2022-10-10T23:50:59.456Z,10.10
2022-10-10T23:53:27.253Z,8.63
2022-10-10T23:55:55.634Z,8.77
2022-10-10T23:58:23.526Z,9.15
